sensor_id;sensor_type;location;lat;lon;timestamp;P1;durP1;ratioP1;P2;durP2;ratioP2
485;SDS011;229;48.734;9.340;2022-12-13T00:00:05;39.42;;;18.98;;
485;SDS011;229;48.734;9.340;2022-12-13T00:02:34;43.40;;;19.30;;
485;SDS011;229;48.734;9.340;2022-12-13T00:05:01;41.20;;;21.20;;
485;SDS011;229;48.734;9.340;2022-12-13T00:07:28;41.22;;;20.38;;
485;SDS011;229;48.734;9.340;2022-12-13T00:09:56;40.55;;;20.67;;
485;SDS011;229;48.734;9.340;2022-12-13T00:12:23;39.33;;;19.38;;
485;SDS011;229;48.734;9.340;2022-12-13T00:14:51;45.05;;;20.60;;
485;SDS011;229;48.734;9.340;2022-12-13T00:17:19;47.53;;;23.05;;
485;SDS011;229;48.734;9.340;2022-12-13T00:19:46;44.60;;;22.27;;
485;SDS011;229;48.734;9.340;2022-12-13T00:22:13;47.95;;;21.85;;
485;SDS011;229;48.734;9.340;2022-12-13T00:24:40;41.97;;;23.20;;
485;SDS011;229;48.734;9.340;2022-12-13T00:27:08;42.40;;;22.15;;
485;SDS011;229;48.734;9.340;2022-12-13T00:29:35;46.35;;;21.70;;
485;SDS011;229;48.734;9.340;2022-12-13T00:32:04;46.33;;;23.05;;
485;SDS011;229;48.734;9.340;2022-12-13T00:34:31;54.03;;;23.45;;
485;SDS011;229;48.734;9.340;2022-12-13T00:36:58;51.33;;;25.33;;
485;SDS011;229;48.734;9.340;2022-12-13T00:39:25;42.90;;;21.08;;
485;SDS011;229;48.734;9.340;2022-12-13T00:41:53;45.83;;;21.83;;
485;SDS011;229;48.734;9.340;2022-12-13T00:44:20;43.90;;;22.02;;
485;SDS011;229;48.734;9.340;2022-12-13T00:46:47;46.67;;;22.83;;
485;SDS011;229;48.734;9.340;2022-12-13T00:49:17;45.50;;;21.05;;
485;SDS011;229;48.734;9.340;2022-12-13T00:51:44;44.63;;;21.27;;
485;SDS011;229;48.734;9.340;2022-12-13T00:54:13;44.13;;;21.85;;
485;SDS011;229;48.734;9.340;2022-12-13T00:56:41;45.63;;;21.85;;
485;SDS011;229;48.734;9.340;2022-12-13T00:59:08;48.17;;;19.60;;
485;SDS011;229;48.734;9.340;2022-12-13T01:01:39;48.78;;;20.08;;
485;SDS011;229;48.734;9.340;2022-12-13T01:04:06;48.75;;;31.15;;
485;SDS011;229;48.734;9.340;2022-12-13T01:06:37;54.00;;;22.70;;
485;SDS011;229;48.734;9.340;2022-12-13T01:09:05;40.88;;;20.92;;
485;SDS011;229;48.734;9.340;2022-12-13T01:11:33;39.38;;;20.48;;
485;SDS011;229;48.734;9.340;2022-12-13T01:14:00;51.03;;;22.23;;
485;SDS011;229;48.734;9.340;2022-12-13T01:16:27;45.28;;;22.25;;
485;SDS011;229;48.734;9.340;2022-12-13T01:18:55;44.15;;;23.02;;
485;SDS011;229;48.734;9.340;2022-12-13T01:21:22;52.47;;;32.42;;
485;SDS011;229;48.734;9.340;2022-12-13T01:23:51;52.88;;;23.60;;
485;SDS011;229;48.734;9.340;2022-12-13T01:26:20;63.08;;;22.40;;
485;SDS011;229;48.734;9.340;2022-12-13T01:28:47;49.75;;;22.35;;
485;SDS011;229;48.734;9.340;2022-12-13T01:31:16;42.95;;;21.88;;
485;SDS011;229;48.734;9.340;2022-12-13T01:33:43;43.90;;;21.55;;
485;SDS011;229;48.734;9.340;2022-12-13T01:36:12;49.38;;;21.42;;
485;SDS011;229;48.734;9.340;2022-12-13T01:38:40;44.28;;;22.48;;
485;SDS011;229;48.734;9.340;2022-12-13T01:41:08;51.35;;;20.75;;
485;SDS011;229;48.734;9.340;2022-12-13T01:43:55;45.65;;;20.58;;
485;SDS011;229;48.734;9.340;2022-12-13T01:46:25;47.47;;;21.63;;
485;SDS011;229;48.734;9.340;2022-12-13T01:48:54;43.03;;;20.50;;
485;SDS011;229;48.734;9.340;2022-12-13T01:51:24;45.85;;;23.05;;
485;SDS011;229;48.734;9.340;2022-12-13T01:53:51;45.47;;;19.42;;
485;SDS011;229;48.734;9.340;2022-12-13T01:56:22;47.72;;;22.55;;
485;SDS011;229;48.734;9.340;2022-12-13T01:58:52;42.50;;;20.30;;
485;SDS011;229;48.734;9.340;2022-12-13T02:01:20;46.95;;;20.58;;
485;SDS011;229;48.734;9.340;2022-12-13T02:03:47;61.97;;;20.95;;
485;SDS011;229;48.734;9.340;2022-12-13T02:06:15;46.25;;;19.30;;
485;SDS011;229;48.734;9.340;2022-12-13T02:08:43;39.88;;;19.92;;
485;SDS011;229;48.734;9.340;2022-12-13T02:11:11;44.70;;;21.77;;
485;SDS011;229;48.734;9.340;2022-12-13T02:13:40;49.00;;;23.60;;
485;SDS011;229;48.734;9.340;2022-12-13T02:16:08;39.67;;;19.08;;
485;SDS011;229;48.734;9.340;2022-12-13T02:18:45;35.00;;;18.73;;
485;SDS011;229;48.734;9.340;2022-12-13T02:21:18;41.58;;;19.33;;
485;SDS011;229;48.734;9.340;2022-12-13T02:29:25;42.33;;;20.00;;
485;SDS011;229;48.734;9.340;2022-12-13T02:31:58;42.47;;;18.55;;
485;SDS011;229;48.734;9.340;2022-12-13T02:34:29;41.72;;;20.33;;
485;SDS011;229;48.734;9.340;2022-12-13T02:37:00;42.03;;;18.95;;
485;SDS011;229;48.734;9.340;2022-12-13T02:39:31;41.17;;;19.38;;
485;SDS011;229;48.734;9.340;2022-12-13T02:41:59;34.97;;;19.02;;
485;SDS011;229;48.734;9.340;2022-12-13T02:44:27;41.58;;;17.67;;
485;SDS011;229;48.734;9.340;2022-12-13T02:46:57;35.60;;;17.35;;
485;SDS011;229;48.734;9.340;2022-12-13T02:49:28;35.28;;;17.88;;
485;SDS011;229;48.734;9.340;2022-12-13T02:51:56;34.78;;;15.88;;
485;SDS011;229;48.734;9.340;2022-12-13T02:54:24;40.83;;;16.73;;
485;SDS011;229;48.734;9.340;2022-12-13T02:56:54;31.52;;;16.65;;
485;SDS011;229;48.734;9.340;2022-12-13T02:59:22;29.35;;;15.30;;
485;SDS011;229;48.734;9.340;2022-12-13T03:01:53;31.27;;;16.48;;
485;SDS011;229;48.734;9.340;2022-12-13T03:04:26;29.40;;;15.48;;
485;SDS011;229;48.734;9.340;2022-12-13T03:06:59;31.98;;;15.18;;
485;SDS011;229;48.734;9.340;2022-12-13T03:09:33;27.70;;;14.60;;
485;SDS011;229;48.734;9.340;2022-12-13T03:12:09;25.83;;;14.73;;
485;SDS011;229;48.734;9.340;2022-12-13T03:14:58;38.47;;;17.38;;
485;SDS011;229;48.734;9.340;2022-12-13T03:17:27;28.52;;;14.18;;
485;SDS011;229;48.734;9.340;2022-12-13T03:19:57;35.15;;;16.33;;
485;SDS011;229;48.734;9.340;2022-12-13T03:22:26;40.70;;;16.05;;
485;SDS011;229;48.734;9.340;2022-12-13T03:24:53;30.40;;;14.85;;
485;SDS011;229;48.734;9.340;2022-12-13T03:27:20;31.85;;;15.13;;
485;SDS011;229;48.734;9.340;2022-12-13T03:29:47;26.75;;;13.65;;
485;SDS011;229;48.734;9.340;2022-12-13T03:32:15;25.80;;;13.60;;
485;SDS011;229;48.734;9.340;2022-12-13T03:34:42;27.50;;;14.23;;
485;SDS011;229;48.734;9.340;2022-12-13T03:37:09;28.60;;;14.60;;
485;SDS011;229;48.734;9.340;2022-12-13T03:39:38;25.63;;;13.63;;
485;SDS011;229;48.734;9.340;2022-12-13T03:42:05;29.80;;;14.75;;
485;SDS011;229;48.734;9.340;2022-12-13T03:44:32;34.70;;;14.60;;
485;SDS011;229;48.734;9.340;2022-12-13T03:46:59;27.00;;;14.55;;
485;SDS011;229;48.734;9.340;2022-12-13T03:49:26;27.13;;;14.30;;
485;SDS011;229;48.734;9.340;2022-12-13T03:51:54;31.55;;;15.32;;
485;SDS011;229;48.734;9.340;2022-12-13T03:54:21;32.60;;;15.85;;
485;SDS011;229;48.734;9.340;2022-12-13T03:56:49;29.58;;;13.75;;
485;SDS011;229;48.734;9.340;2022-12-13T03:59:17;31.83;;;14.00;;
485;SDS011;229;48.734;9.340;2022-12-13T04:01:44;25.33;;;13.15;;
485;SDS011;229;48.734;9.340;2022-12-13T04:04:11;31.33;;;14.73;;
485;SDS011;229;48.734;9.340;2022-12-13T04:06:38;25.23;;;13.50;;
485;SDS011;229;48.734;9.340;2022-12-13T04:09:05;27.60;;;14.43;;
485;SDS011;229;48.734;9.340;2022-12-13T04:11:32;25.58;;;13.63;;
485;SDS011;229;48.734;9.340;2022-12-13T04:14:18;25.13;;;14.10;;
485;SDS011;229;48.734;9.340;2022-12-13T04:16:46;31.05;;;14.52;;
485;SDS011;229;48.734;9.340;2022-12-13T04:19:13;33.55;;;14.45;;
485;SDS011;229;48.734;9.340;2022-12-13T04:21:40;29.20;;;14.57;;
485;SDS011;229;48.734;9.340;2022-12-13T04:24:07;26.77;;;15.02;;
485;SDS011;229;48.734;9.340;2022-12-13T04:26:34;30.67;;;14.50;;
485;SDS011;229;48.734;9.340;2022-12-13T04:29:02;30.02;;;15.27;;
485;SDS011;229;48.734;9.340;2022-12-13T04:31:30;30.50;;;14.40;;
485;SDS011;229;48.734;9.340;2022-12-13T04:33:57;36.60;;;15.88;;
485;SDS011;229;48.734;9.340;2022-12-13T04:36:25;24.02;;;13.60;;
485;SDS011;229;48.734;9.340;2022-12-13T04:38:52;27.00;;;12.98;;
485;SDS011;229;48.734;9.340;2022-12-13T04:41:19;26.85;;;13.95;;
485;SDS011;229;48.734;9.340;2022-12-13T04:43:49;27.48;;;13.52;;
485;SDS011;229;48.734;9.340;2022-12-13T04:46:17;28.20;;;14.10;;
485;SDS011;229;48.734;9.340;2022-12-13T04:48:46;24.35;;;13.77;;
485;SDS011;229;48.734;9.340;2022-12-13T04:51:13;28.55;;;13.70;;
485;SDS011;229;48.734;9.340;2022-12-13T04:53:41;29.35;;;14.38;;
485;SDS011;229;48.734;9.340;2022-12-13T04:56:08;29.60;;;13.65;;
485;SDS011;229;48.734;9.340;2022-12-13T04:58:35;26.30;;;13.35;;
485;SDS011;229;48.734;9.340;2022-12-13T05:01:05;24.70;;;12.70;;
485;SDS011;229;48.734;9.340;2022-12-13T05:03:32;31.52;;;14.80;;
485;SDS011;229;48.734;9.340;2022-12-13T05:06:04;28.05;;;13.60;;
485;SDS011;229;48.734;9.340;2022-12-13T05:08:31;28.77;;;12.18;;
485;SDS011;229;48.734;9.340;2022-12-13T05:10:58;26.00;;;12.63;;
485;SDS011;229;48.734;9.340;2022-12-13T05:13:26;25.77;;;13.30;;
485;SDS011;229;48.734;9.340;2022-12-13T05:15:53;22.73;;;12.63;;
485;SDS011;229;48.734;9.340;2022-12-13T05:18:21;29.00;;;13.52;;
485;SDS011;229;48.734;9.340;2022-12-13T05:20:48;32.63;;;15.70;;
485;SDS011;229;48.734;9.340;2022-12-13T05:23:17;24.08;;;12.80;;
485;SDS011;229;48.734;9.340;2022-12-13T05:25:44;31.00;;;12.98;;
485;SDS011;229;48.734;9.340;2022-12-13T05:28:12;35.10;;;14.48;;
485;SDS011;229;48.734;9.340;2022-12-13T05:30:39;29.70;;;13.32;;
485;SDS011;229;48.734;9.340;2022-12-13T05:33:07;27.92;;;12.85;;
485;SDS011;229;48.734;9.340;2022-12-13T05:35:34;24.67;;;13.00;;
485;SDS011;229;48.734;9.340;2022-12-13T05:38:01;26.38;;;12.82;;
485;SDS011;229;48.734;9.340;2022-12-13T05:40:31;22.88;;;13.05;;
485;SDS011;229;48.734;9.340;2022-12-13T05:42:58;29.83;;;13.40;;
485;SDS011;229;48.734;9.340;2022-12-13T05:45:25;24.63;;;13.02;;
485;SDS011;229;48.734;9.340;2022-12-13T05:47:52;27.27;;;13.00;;
485;SDS011;229;48.734;9.340;2022-12-13T05:50:19;31.52;;;13.85;;
485;SDS011;229;48.734;9.340;2022-12-13T05:52:47;28.75;;;14.98;;
485;SDS011;229;48.734;9.340;2022-12-13T05:55:14;26.65;;;13.00;;
485;SDS011;229;48.734;9.340;2022-12-13T05:57:43;25.40;;;12.90;;
485;SDS011;229;48.734;9.340;2022-12-13T06:00:10;22.02;;;11.90;;
485;SDS011;229;48.734;9.340;2022-12-13T06:02:38;25.17;;;13.85;;
485;SDS011;229;48.734;9.340;2022-12-13T06:05:06;30.67;;;13.40;;
485;SDS011;229;48.734;9.340;2022-12-13T06:07:34;26.98;;;13.15;;
485;SDS011;229;48.734;9.340;2022-12-13T06:10:01;28.90;;;13.85;;
485;SDS011;229;48.734;9.340;2022-12-13T06:12:28;28.05;;;13.38;;
485;SDS011;229;48.734;9.340;2022-12-13T06:14:57;22.58;;;12.18;;
485;SDS011;229;48.734;9.340;2022-12-13T06:17:24;25.77;;;12.90;;
485;SDS011;229;48.734;9.340;2022-12-13T06:19:51;22.77;;;13.02;;
485;SDS011;229;48.734;9.340;2022-12-13T06:22:18;31.95;;;15.48;;
485;SDS011;229;48.734;9.340;2022-12-13T06:24:46;31.92;;;12.70;;
485;SDS011;229;48.734;9.340;2022-12-13T06:27:13;22.98;;;11.38;;
485;SDS011;229;48.734;9.340;2022-12-13T06:29:40;27.13;;;13.70;;
485;SDS011;229;48.734;9.340;2022-12-13T06:32:09;26.23;;;11.80;;
485;SDS011;229;48.734;9.340;2022-12-13T06:34:36;22.92;;;13.65;;
485;SDS011;229;48.734;9.340;2022-12-13T06:37:04;34.28;;;14.00;;
485;SDS011;229;48.734;9.340;2022-12-13T06:39:31;23.17;;;12.77;;
485;SDS011;229;48.734;9.340;2022-12-13T06:41:59;24.02;;;12.65;;
485;SDS011;229;48.734;9.340;2022-12-13T06:44:27;21.10;;;11.93;;
485;SDS011;229;48.734;9.340;2022-12-13T06:46:54;21.98;;;13.02;;
485;SDS011;229;48.734;9.340;2022-12-13T06:49:23;29.83;;;14.38;;
485;SDS011;229;48.734;9.340;2022-12-13T06:51:50;25.65;;;13.75;;
485;SDS011;229;48.734;9.340;2022-12-13T06:54:18;21.58;;;12.73;;
485;SDS011;229;48.734;9.340;2022-12-13T06:56:45;23.00;;;13.88;;
485;SDS011;229;48.734;9.340;2022-12-13T06:59:12;19.38;;;12.35;;
485;SDS011;229;48.734;9.340;2022-12-13T07:01:39;20.23;;;11.90;;
485;SDS011;229;48.734;9.340;2022-12-13T07:04:07;28.63;;;13.70;;
485;SDS011;229;48.734;9.340;2022-12-13T07:06:36;23.38;;;12.85;;
485;SDS011;229;48.734;9.340;2022-12-13T07:09:03;23.50;;;13.60;;
485;SDS011;229;48.734;9.340;2022-12-13T07:11:31;21.85;;;12.45;;
485;SDS011;229;48.734;9.340;2022-12-13T07:13:59;24.15;;;12.50;;
485;SDS011;229;48.734;9.340;2022-12-13T07:16:27;22.25;;;13.82;;
485;SDS011;229;48.734;9.340;2022-12-13T07:18:54;21.55;;;11.80;;
485;SDS011;229;48.734;9.340;2022-12-13T07:21:21;24.08;;;13.02;;
485;SDS011;229;48.734;9.340;2022-12-13T07:23:50;25.85;;;12.85;;
485;SDS011;229;48.734;9.340;2022-12-13T07:26:18;29.95;;;14.45;;
485;SDS011;229;48.734;9.340;2022-12-13T07:28:45;21.85;;;12.20;;
485;SDS011;229;48.734;9.340;2022-12-13T07:31:13;24.88;;;13.23;;
485;SDS011;229;48.734;9.340;2022-12-13T07:33:40;23.70;;;13.70;;
485;SDS011;229;48.734;9.340;2022-12-13T07:36:08;27.05;;;13.45;;
485;SDS011;229;48.734;9.340;2022-12-13T07:38:37;29.42;;;13.02;;
485;SDS011;229;48.734;9.340;2022-12-13T07:41:06;25.45;;;12.90;;
485;SDS011;229;48.734;9.340;2022-12-13T07:43:33;23.13;;;12.52;;
485;SDS011;229;48.734;9.340;2022-12-13T07:46:02;24.50;;;12.93;;
485;SDS011;229;48.734;9.340;2022-12-13T07:48:29;28.77;;;14.02;;
485;SDS011;229;48.734;9.340;2022-12-13T07:50:59;24.23;;;14.48;;
485;SDS011;229;48.734;9.340;2022-12-13T07:53:27;24.15;;;13.10;;
485;SDS011;229;48.734;9.340;2022-12-13T07:55:54;29.05;;;14.27;;
485;SDS011;229;48.734;9.340;2022-12-13T07:58:23;27.83;;;14.27;;
485;SDS011;229;48.734;9.340;2022-12-13T08:00:50;31.80;;;14.02;;
485;SDS011;229;48.734;9.340;2022-12-13T08:03:17;31.75;;;19.90;;
485;SDS011;229;48.734;9.340;2022-12-13T08:05:44;25.35;;;14.98;;
485;SDS011;229;48.734;9.340;2022-12-13T08:08:11;25.08;;;14.35;;
485;SDS011;229;48.734;9.340;2022-12-13T08:10:38;30.83;;;14.07;;
485;SDS011;229;48.734;9.340;2022-12-13T08:13:06;26.98;;;14.82;;
485;SDS011;229;48.734;9.340;2022-12-13T08:15:34;23.35;;;13.70;;
485;SDS011;229;48.734;9.340;2022-12-13T08:18:01;32.42;;;15.40;;
485;SDS011;229;48.734;9.340;2022-12-13T08:20:29;27.33;;;13.98;;
485;SDS011;229;48.734;9.340;2022-12-13T08:22:56;29.35;;;14.77;;
485;SDS011;229;48.734;9.340;2022-12-13T08:25:24;27.40;;;14.05;;
485;SDS011;229;48.734;9.340;2022-12-13T08:27:51;28.10;;;15.18;;
485;SDS011;229;48.734;9.340;2022-12-13T08:30:19;28.35;;;14.45;;
485;SDS011;229;48.734;9.340;2022-12-13T08:32:49;26.05;;;14.15;;
485;SDS011;229;48.734;9.340;2022-12-13T08:35:16;28.55;;;15.02;;
485;SDS011;229;48.734;9.340;2022-12-13T08:37:43;28.00;;;14.07;;
485;SDS011;229;48.734;9.340;2022-12-13T08:40:10;25.40;;;13.27;;
485;SDS011;229;48.734;9.340;2022-12-13T08:42:38;24.98;;;14.00;;
485;SDS011;229;48.734;9.340;2022-12-13T08:45:05;22.33;;;13.77;;
485;SDS011;229;48.734;9.340;2022-12-13T08:47:33;29.25;;;15.43;;
485;SDS011;229;48.734;9.340;2022-12-13T08:50:01;30.55;;;19.45;;
485;SDS011;229;48.734;9.340;2022-12-13T08:52:29;27.48;;;15.18;;
485;SDS011;229;48.734;9.340;2022-12-13T08:54:56;27.95;;;14.65;;
485;SDS011;229;48.734;9.340;2022-12-13T08:57:23;26.98;;;13.32;;
485;SDS011;229;48.734;9.340;2022-12-13T08:59:51;25.15;;;14.88;;
485;SDS011;229;48.734;9.340;2022-12-13T09:02:19;29.50;;;18.35;;
485;SDS011;229;48.734;9.340;2022-12-13T09:04:46;23.85;;;16.73;;
485;SDS011;229;48.734;9.340;2022-12-13T09:07:14;21.65;;;13.32;;
485;SDS011;229;48.734;9.340;2022-12-13T09:09:42;23.27;;;16.25;;
485;SDS011;229;48.734;9.340;2022-12-13T09:12:09;26.30;;;17.52;;
485;SDS011;229;48.734;9.340;2022-12-13T09:14:36;22.23;;;16.90;;
485;SDS011;229;48.734;9.340;2022-12-13T09:17:03;23.98;;;17.40;;
485;SDS011;229;48.734;9.340;2022-12-13T09:19:31;27.90;;;15.25;;
485;SDS011;229;48.734;9.340;2022-12-13T09:21:58;20.20;;;14.93;;
485;SDS011;229;48.734;9.340;2022-12-13T09:24:27;26.42;;;16.67;;
485;SDS011;229;48.734;9.340;2022-12-13T09:26:54;21.52;;;14.35;;
485;SDS011;229;48.734;9.340;2022-12-13T09:29:21;23.98;;;15.50;;
485;SDS011;229;48.734;9.340;2022-12-13T09:31:48;22.90;;;15.50;;
485;SDS011;229;48.734;9.340;2022-12-13T09:34:16;23.85;;;15.55;;
485;SDS011;229;48.734;9.340;2022-12-13T09:36:43;22.00;;;15.35;;
485;SDS011;229;48.734;9.340;2022-12-13T09:39:10;19.17;;;14.65;;
485;SDS011;229;48.734;9.340;2022-12-13T09:41:39;19.65;;;15.15;;
485;SDS011;229;48.734;9.340;2022-12-13T09:44:10;18.10;;;14.65;;
485;SDS011;229;48.734;9.340;2022-12-13T09:46:41;19.98;;;15.80;;
485;SDS011;229;48.734;9.340;2022-12-13T09:49:10;18.92;;;14.00;;
485;SDS011;229;48.734;9.340;2022-12-13T09:51:38;21.15;;;15.25;;
485;SDS011;229;48.734;9.340;2022-12-13T09:54:06;17.38;;;13.77;;
485;SDS011;229;48.734;9.340;2022-12-13T09:56:33;19.00;;;13.68;;
485;SDS011;229;48.734;9.340;2022-12-13T09:59:02;24.63;;;15.23;;
485;SDS011;229;48.734;9.340;2022-12-13T10:01:29;20.15;;;14.60;;
485;SDS011;229;48.734;9.340;2022-12-13T10:03:56;21.20;;;14.50;;
485;SDS011;229;48.734;9.340;2022-12-13T10:06:25;22.67;;;14.00;;
485;SDS011;229;48.734;9.340;2022-12-13T10:08:56;16.92;;;13.75;;
485;SDS011;229;48.734;9.340;2022-12-13T10:11:23;22.33;;;14.35;;
485;SDS011;229;48.734;9.340;2022-12-13T10:13:52;18.88;;;14.10;;
485;SDS011;229;48.734;9.340;2022-12-13T10:16:24;20.58;;;14.20;;
485;SDS011;229;48.734;9.340;2022-12-13T10:18:52;18.90;;;14.63;;
485;SDS011;229;48.734;9.340;2022-12-13T10:21:21;19.55;;;14.82;;
485;SDS011;229;48.734;9.340;2022-12-13T10:23:51;28.40;;;16.25;;
485;SDS011;229;48.734;9.340;2022-12-13T10:26:18;16.48;;;14.30;;
485;SDS011;229;48.734;9.340;2022-12-13T10:28:45;21.75;;;15.63;;
485;SDS011;229;48.734;9.340;2022-12-13T10:31:16;22.48;;;15.38;;
485;SDS011;229;48.734;9.340;2022-12-13T10:33:50;23.73;;;15.40;;
485;SDS011;229;48.734;9.340;2022-12-13T10:36:29;46.58;;;17.05;;
485;SDS011;229;48.734;9.340;2022-12-13T10:38:57;23.25;;;15.45;;
485;SDS011;229;48.734;9.340;2022-12-13T10:41:25;20.98;;;14.40;;
485;SDS011;229;48.734;9.340;2022-12-13T10:44:05;30.10;;;15.05;;
485;SDS011;229;48.734;9.340;2022-12-13T10:46:33;27.30;;;14.75;;
485;SDS011;229;48.734;9.340;2022-12-13T10:49:02;24.88;;;14.65;;
485;SDS011;229;48.734;9.340;2022-12-13T10:51:35;14.68;;;12.70;;
485;SDS011;229;48.734;9.340;2022-12-13T10:54:04;23.55;;;13.50;;
485;SDS011;229;48.734;9.340;2022-12-13T10:56:32;22.65;;;13.90;;
485;SDS011;229;48.734;9.340;2022-12-13T10:59:07;16.60;;;13.48;;
485;SDS011;229;48.734;9.340;2022-12-13T11:01:35;23.33;;;14.38;;
485;SDS011;229;48.734;9.340;2022-12-13T11:04:04;20.58;;;13.43;;
485;SDS011;229;48.734;9.340;2022-12-13T11:06:39;17.23;;;12.90;;
485;SDS011;229;48.734;9.340;2022-12-13T11:09:12;18.67;;;14.50;;
485;SDS011;229;48.734;9.340;2022-12-13T11:11:39;27.02;;;14.05;;
485;SDS011;229;48.734;9.340;2022-12-13T11:14:12;15.85;;;13.27;;
485;SDS011;229;48.734;9.340;2022-12-13T11:16:42;18.15;;;14.20;;
485;SDS011;229;48.734;9.340;2022-12-13T11:19:16;23.25;;;13.95;;
485;SDS011;229;48.734;9.340;2022-12-13T11:21:45;18.40;;;13.05;;
485;SDS011;229;48.734;9.340;2022-12-13T11:24:16;23.50;;;13.52;;
485;SDS011;229;48.734;9.340;2022-12-13T11:26:46;16.88;;;12.43;;
485;SDS011;229;48.734;9.340;2022-12-13T11:29:19;18.58;;;13.25;;
485;SDS011;229;48.734;9.340;2022-12-13T11:31:52;16.63;;;12.70;;
485;SDS011;229;48.734;9.340;2022-12-13T11:34:25;20.95;;;13.30;;
485;SDS011;229;48.734;9.340;2022-12-13T11:36:57;18.85;;;12.80;;
485;SDS011;229;48.734;9.340;2022-12-13T11:39:27;18.88;;;12.77;;
485;SDS011;229;48.734;9.340;2022-12-13T11:41:57;20.20;;;13.70;;
485;SDS011;229;48.734;9.340;2022-12-13T11:44:27;18.33;;;13.18;;
485;SDS011;229;48.734;9.340;2022-12-13T11:46:56;17.63;;;13.35;;
485;SDS011;229;48.734;9.340;2022-12-13T11:49:29;16.88;;;11.82;;
485;SDS011;229;48.734;9.340;2022-12-13T11:51:58;16.67;;;12.50;;
485;SDS011;229;48.734;9.340;2022-12-13T11:54:27;22.20;;;12.57;;
485;SDS011;229;48.734;9.340;2022-12-13T11:56:58;19.23;;;12.85;;
485;SDS011;229;48.734;9.340;2022-12-13T11:59:30;37.00;;;16.20;;
485;SDS011;229;48.734;9.340;2022-12-13T12:02:01;22.60;;;13.60;;
485;SDS011;229;48.734;9.340;2022-12-13T12:04:35;15.38;;;12.30;;
485;SDS011;229;48.734;9.340;2022-12-13T12:07:06;22.52;;;13.25;;
485;SDS011;229;48.734;9.340;2022-12-13T12:09:37;14.70;;;11.73;;
485;SDS011;229;48.734;9.340;2022-12-13T12:12:05;16.05;;;11.75;;
485;SDS011;229;48.734;9.340;2022-12-13T12:14:34;20.02;;;12.80;;
485;SDS011;229;48.734;9.340;2022-12-13T12:17:05;14.90;;;11.07;;
485;SDS011;229;48.734;9.340;2022-12-13T12:19:35;14.07;;;11.52;;
485;SDS011;229;48.734;9.340;2022-12-13T12:22:07;23.45;;;13.52;;
485;SDS011;229;48.734;9.340;2022-12-13T12:24:40;21.70;;;13.10;;
485;SDS011;229;48.734;9.340;2022-12-13T12:27:17;16.60;;;12.40;;
485;SDS011;229;48.734;9.340;2022-12-13T12:29:51;22.30;;;11.30;;
485;SDS011;229;48.734;9.340;2022-12-13T12:32:24;20.20;;;12.00;;
485;SDS011;229;48.734;9.340;2022-12-13T12:35:01;38.58;;;14.80;;
485;SDS011;229;48.734;9.340;2022-12-13T12:37:35;15.40;;;12.23;;
485;SDS011;229;48.734;9.340;2022-12-13T12:40:10;22.33;;;14.32;;
485;SDS011;229;48.734;9.340;2022-12-13T12:42:48;16.45;;;12.95;;
485;SDS011;229;48.734;9.340;2022-12-13T12:45:27;16.50;;;11.70;;
485;SDS011;229;48.734;9.340;2022-12-13T12:48:00;16.05;;;12.02;;
485;SDS011;229;48.734;9.340;2022-12-13T12:50:35;26.45;;;13.60;;
485;SDS011;229;48.734;9.340;2022-12-13T12:53:10;20.52;;;13.15;;
485;SDS011;229;48.734;9.340;2022-12-13T12:55:45;24.20;;;12.95;;
485;SDS011;229;48.734;9.340;2022-12-13T12:58:18;25.38;;;14.20;;
485;SDS011;229;48.734;9.340;2022-12-13T13:00:51;17.55;;;13.20;;
485;SDS011;229;48.734;9.340;2022-12-13T13:03:21;17.83;;;12.90;;
485;SDS011;229;48.734;9.340;2022-12-13T13:05:52;22.67;;;12.73;;
485;SDS011;229;48.734;9.340;2022-12-13T13:08:21;19.00;;;13.40;;
485;SDS011;229;48.734;9.340;2022-12-13T13:10:49;16.88;;;12.43;;
485;SDS011;229;48.734;9.340;2022-12-13T13:15:59;15.40;;;12.45;;
485;SDS011;229;48.734;9.340;2022-12-13T13:18:48;14.13;;;11.57;;
485;SDS011;229;48.734;9.340;2022-12-13T13:21:36;22.90;;;12.68;;
485;SDS011;229;48.734;9.340;2022-12-13T13:24:15;20.48;;;13.68;;
485;SDS011;229;48.734;9.340;2022-12-13T13:26:44;17.35;;;11.38;;
485;SDS011;229;48.734;9.340;2022-12-13T13:29:28;15.60;;;11.00;;
485;SDS011;229;48.734;9.340;2022-12-13T13:31:56;18.25;;;11.63;;
485;SDS011;229;48.734;9.340;2022-12-13T13:34:24;14.27;;;11.85;;
485;SDS011;229;48.734;9.340;2022-12-13T13:36:54;12.98;;;11.80;;
485;SDS011;229;48.734;9.340;2022-12-13T13:42:20;17.75;;;10.50;;
485;SDS011;229;48.734;9.340;2022-12-13T13:47:36;17.60;;;11.35;;
485;SDS011;229;48.734;9.340;2022-12-13T13:50:13;15.23;;;11.63;;
485;SDS011;229;48.734;9.340;2022-12-13T13:52:50;17.35;;;12.57;;
485;SDS011;229;48.734;9.340;2022-12-13T13:55:28;15.98;;;11.00;;
485;SDS011;229;48.734;9.340;2022-12-13T14:00:54;19.40;;;11.60;;
485;SDS011;229;48.734;9.340;2022-12-13T14:03:39;13.82;;;12.23;;
485;SDS011;229;48.734;9.340;2022-12-13T14:12:16;14.55;;;11.20;;
485;SDS011;229;48.734;9.340;2022-12-13T14:17:45;11.48;;;10.88;;
485;SDS011;229;48.734;9.340;2022-12-13T14:23:17;22.20;;;10.88;;
485;SDS011;229;48.734;9.340;2022-12-13T14:25:50;30.42;;;11.77;;
485;SDS011;229;48.734;9.340;2022-12-13T14:28:24;20.60;;;11.10;;
485;SDS011;229;48.734;9.340;2022-12-13T14:30:53;19.75;;;10.23;;
485;SDS011;229;48.734;9.340;2022-12-13T14:33:20;21.85;;;12.25;;
485;SDS011;229;48.734;9.340;2022-12-13T14:35:49;14.23;;;11.43;;
485;SDS011;229;48.734;9.340;2022-12-13T14:38:19;20.70;;;12.88;;
485;SDS011;229;48.734;9.340;2022-12-13T14:40:48;17.75;;;11.52;;
485;SDS011;229;48.734;9.340;2022-12-13T14:43:22;18.75;;;11.48;;
485;SDS011;229;48.734;9.340;2022-12-13T14:45:54;19.45;;;11.55;;
485;SDS011;229;48.734;9.340;2022-12-13T14:48:22;19.83;;;12.50;;
485;SDS011;229;48.734;9.340;2022-12-13T14:50:49;16.00;;;12.13;;
485;SDS011;229;48.734;9.340;2022-12-13T14:53:20;13.65;;;11.90;;
485;SDS011;229;48.734;9.340;2022-12-13T14:56:01;15.25;;;12.77;;
485;SDS011;229;48.734;9.340;2022-12-13T14:58:29;25.85;;;13.20;;
485;SDS011;229;48.734;9.340;2022-12-13T15:00:57;17.35;;;11.63;;
485;SDS011;229;48.734;9.340;2022-12-13T15:03:25;17.30;;;13.65;;
485;SDS011;229;48.734;9.340;2022-12-13T15:05:53;24.45;;;13.52;;
485;SDS011;229;48.734;9.340;2022-12-13T15:08:21;22.42;;;12.73;;
485;SDS011;229;48.734;9.340;2022-12-13T15:10:48;29.77;;;13.15;;
485;SDS011;229;48.734;9.340;2022-12-13T15:13:21;22.95;;;13.60;;
485;SDS011;229;48.734;9.340;2022-12-13T15:15:52;20.05;;;14.02;;
485;SDS011;229;48.734;9.340;2022-12-13T15:18:20;21.55;;;13.07;;
485;SDS011;229;48.734;9.340;2022-12-13T15:20:48;24.00;;;14.07;;
485;SDS011;229;48.734;9.340;2022-12-13T15:23:18;24.02;;;14.68;;
485;SDS011;229;48.734;9.340;2022-12-13T15:25:54;21.73;;;13.75;;
485;SDS011;229;48.734;9.340;2022-12-13T15:28:26;22.20;;;13.30;;
485;SDS011;229;48.734;9.340;2022-12-13T15:30:55;29.42;;;15.15;;
485;SDS011;229;48.734;9.340;2022-12-13T15:33:23;19.95;;;13.10;;
485;SDS011;229;48.734;9.340;2022-12-13T15:35:59;16.85;;;13.00;;
485;SDS011;229;48.734;9.340;2022-12-13T15:38:27;20.30;;;13.05;;
485;SDS011;229;48.734;9.340;2022-12-13T15:40:55;21.55;;;14.52;;
485;SDS011;229;48.734;9.340;2022-12-13T15:43:26;23.13;;;14.48;;
485;SDS011;229;48.734;9.340;2022-12-13T15:45:57;26.13;;;15.07;;
485;SDS011;229;48.734;9.340;2022-12-13T15:48:26;22.45;;;13.27;;
485;SDS011;229;48.734;9.340;2022-12-13T15:51:05;20.67;;;13.45;;
485;SDS011;229;48.734;9.340;2022-12-13T15:53:33;22.75;;;13.35;;
485;SDS011;229;48.734;9.340;2022-12-13T15:56:01;22.00;;;13.45;;